createdAt,value
2018-04-13T00:00:08.328Z,13.97
2018-04-13T00:02:35.833Z,18.63
2018-04-13T00:05:03.361Z,15.70
2018-04-13T00:07:30.858Z,11.43
2018-04-13T00:09:58.411Z,16.27
2018-04-13T00:12:25.911Z,18.23
2018-04-13T00:14:53.421Z,16.70
2018-04-13T00:17:20.972Z,16.67
2018-04-13T00:19:48.493Z,17.33
2018-04-13T00:22:16.051Z,16.33
2018-04-13T00:24:43.559Z,17.13
2018-04-13T00:27:11.076Z,16.53
2018-04-13T00:29:38.588Z,17.67
2018-04-13T00:32:06.091Z,14.87
2018-04-13T00:34:33.601Z,16.50
2018-04-13T00:37:01.115Z,15.30
2018-04-13T00:39:28.621Z,18.23
2018-04-13T00:41:56.213Z,15.63
2018-04-13T00:44:23.726Z,15.33
2018-04-13T00:46:51.241Z,14.17
2018-04-13T00:49:18.749Z,18.40
2018-04-13T00:51:46.260Z,17.13
2018-04-13T00:54:13.779Z,20.70
2018-04-13T00:56:41.295Z,26.23
2018-04-13T00:59:08.807Z,26.90
2018-04-13T01:01:36.356Z,27.00
2018-04-13T01:04:03.870Z,29.37
2018-04-13T01:06:31.387Z,29.60
2018-04-13T01:08:58.896Z,24.90
2018-04-13T01:11:26.400Z,25.27
2018-04-13T01:13:53.947Z,21.57
2018-04-13T01:16:21.454Z,20.37
2018-04-13T01:18:48.995Z,18.87
2018-04-13T01:21:16.508Z,19.00
2018-04-13T01:23:44.059Z,17.23
2018-04-13T01:26:11.567Z,15.67
2018-04-13T01:28:39.081Z,16.20
2018-04-13T01:31:06.639Z,17.90
2018-04-13T01:33:34.163Z,16.43
2018-04-13T01:36:01.665Z,15.93
2018-04-13T01:38:29.220Z,16.03
2018-04-13T01:40:56.764Z,15.27
2018-04-13T01:43:24.321Z,15.10
2018-04-13T01:45:51.879Z,15.63
2018-04-13T01:48:19.685Z,16.17
2018-04-13T01:50:47.203Z,19.23
2018-04-13T01:53:14.720Z,21.73
2018-04-13T01:55:42.262Z,17.70
2018-04-13T01:58:09.816Z,15.73
2018-04-13T02:00:37.331Z,23.07
2018-04-13T02:03:04.841Z,17.77
2018-04-13T02:05:32.348Z,21.40
2018-04-13T02:07:59.888Z,23.33
2018-04-13T02:10:27.395Z,17.77
2018-04-13T02:12:54.914Z,17.97
2018-04-13T02:15:22.477Z,17.93
2018-04-13T02:17:49.992Z,17.10
2018-04-13T02:20:17.531Z,16.60
2018-04-13T02:22:45.095Z,22.80
2018-04-13T02:25:12.603Z,17.40
2018-04-13T02:27:40.108Z,18.83
2018-04-13T02:30:07.763Z,19.50
2018-04-13T02:32:35.267Z,17.30
2018-04-13T02:35:02.774Z,17.13
2018-04-13T02:37:30.292Z,23.93
2018-04-13T02:39:57.849Z,25.17
2018-04-13T02:42:25.359Z,21.00
2018-04-13T02:44:52.873Z,23.33
2018-04-13T02:47:20.375Z,22.73
2018-04-13T02:49:47.885Z,22.57
2018-04-13T02:52:15.400Z,18.13
2018-04-13T02:54:42.903Z,19.20
2018-04-13T02:57:10.455Z,20.63
2018-04-13T02:59:37.958Z,21.20
2018-04-13T03:02:05.508Z,22.37
2018-04-13T03:04:33.024Z,20.77
2018-04-13T03:07:00.572Z,24.27
2018-04-13T03:09:28.145Z,29.23
2018-04-13T03:11:55.658Z,25.47
2018-04-13T03:14:23.192Z,30.73
2018-04-13T03:16:50.756Z,37.50
2018-04-13T03:19:18.299Z,28.97
2018-04-13T03:21:45.808Z,32.27
2018-04-13T03:24:13.325Z,35.13
2018-04-13T03:26:40.848Z,34.80
2018-04-13T03:29:08.415Z,25.97
2018-04-13T03:31:35.961Z,24.87
2018-04-13T03:34:03.507Z,18.63
2018-04-13T03:36:31.082Z,22.87
2018-04-13T03:38:58.638Z,16.77
2018-04-13T03:41:26.163Z,18.00
2018-04-13T03:43:53.706Z,26.07
2018-04-13T03:46:21.231Z,18.60
2018-04-13T03:48:48.782Z,22.47
2018-04-13T03:51:16.288Z,23.77
2018-04-13T03:53:43.798Z,22.57
2018-04-13T03:56:11.315Z,18.93
2018-04-13T03:58:38.854Z,25.47
2018-04-13T04:01:06.394Z,23.57
2018-04-13T04:03:33.905Z,22.93
2018-04-13T04:06:01.452Z,19.80
2018-04-13T04:08:29.010Z,20.70
2018-04-13T04:10:56.534Z,22.00
2018-04-13T04:13:24.054Z,23.83
2018-04-13T04:15:51.563Z,19.30
2018-04-13T04:18:19.068Z,21.53
2018-04-13T04:20:58.390Z,22.23
2018-04-13T04:23:37.855Z,30.70
2018-04-13T04:26:22.185Z,25.17
2018-04-13T04:28:49.771Z,21.87
2018-04-13T04:31:17.358Z,23.57
2018-04-13T04:33:44.863Z,35.10
2018-04-13T04:36:12.412Z,23.33
2018-04-13T04:38:39.929Z,23.27
2018-04-13T04:41:07.451Z,25.07
2018-04-13T04:43:35.002Z,29.20
2018-04-13T04:46:02.546Z,21.50
2018-04-13T04:48:30.117Z,25.60
2018-04-13T04:50:57.660Z,24.40
2018-04-13T04:53:25.171Z,26.13
2018-04-13T04:55:52.693Z,25.77
2018-04-13T04:58:20.217Z,22.57
2018-04-13T05:00:47.767Z,21.90
2018-04-13T05:03:15.324Z,23.80
2018-04-13T05:05:42.867Z,21.40
2018-04-13T05:08:10.420Z,24.60
2018-04-13T05:10:37.935Z,25.30
2018-04-13T05:13:05.489Z,23.77
2018-04-13T05:15:33.001Z,23.73
2018-04-13T05:18:00.513Z,25.00
2018-04-13T05:20:28.021Z,17.53
2018-04-13T05:22:55.570Z,15.53
2018-04-13T05:25:23.081Z,15.43
2018-04-13T05:27:50.697Z,15.23
2018-04-13T05:30:18.257Z,19.33
2018-04-13T05:32:45.770Z,17.60
2018-04-13T05:35:13.340Z,18.37
2018-04-13T05:37:40.887Z,17.37
2018-04-13T05:40:08.443Z,19.77
2018-04-13T05:42:35.965Z,18.07
2018-04-13T05:45:03.479Z,13.63
2018-04-13T05:47:31.036Z,17.20
2018-04-13T05:49:58.556Z,15.70
2018-04-13T05:52:26.379Z,13.67
2018-04-13T05:54:53.924Z,14.43
2018-04-13T05:57:21.435Z,16.70
2018-04-13T05:59:49.016Z,14.73
2018-04-13T06:02:16.620Z,13.30
2018-04-13T06:04:44.119Z,15.30
2018-04-13T06:07:11.689Z,15.57
2018-04-13T06:09:39.180Z,14.20
2018-04-13T06:12:06.774Z,14.67
2018-04-13T06:14:34.298Z,17.00
2018-04-13T06:17:01.848Z,17.37
2018-04-13T06:19:29.442Z,13.20
2018-04-13T06:21:56.947Z,14.97
2018-04-13T06:24:24.476Z,14.17
2018-04-13T06:26:51.989Z,14.93
2018-04-13T06:29:19.540Z,20.03
2018-04-13T06:31:47.116Z,15.47
2018-04-13T06:34:14.636Z,17.30
2018-04-13T06:36:42.179Z,13.73
2018-04-13T06:39:09.688Z,20.03
2018-04-13T06:41:37.208Z,15.63
2018-04-13T06:44:04.770Z,20.33
2018-04-13T06:46:32.286Z,14.83
2018-04-13T06:48:59.787Z,18.50
2018-04-13T06:51:27.312Z,18.50
2018-04-13T06:53:54.877Z,17.83
2018-04-13T06:56:22.389Z,18.23
2018-04-13T06:58:49.899Z,19.10
2018-04-13T07:01:17.494Z,20.17
2018-04-13T07:03:45.007Z,17.00
2018-04-13T07:06:12.559Z,23.23
2018-04-13T07:08:40.128Z,16.23
2018-04-13T07:11:07.691Z,19.97
2018-04-13T07:13:35.239Z,22.47
2018-04-13T07:16:02.763Z,21.00
2018-04-13T07:18:30.331Z,14.13
2018-04-13T07:20:57.844Z,13.60
2018-04-13T07:23:25.356Z,21.83
2018-04-13T07:25:52.919Z,14.77
2018-04-13T07:28:20.436Z,13.30
2018-04-13T07:30:48.803Z,17.77
2018-04-13T07:33:16.427Z,16.30
2018-04-13T07:35:44.051Z,12.65
2018-04-13T07:38:11.572Z,13.77
2018-04-13T07:40:39.123Z,15.13
2018-04-13T07:43:06.640Z,12.43
2018-04-13T07:45:34.188Z,13.32
2018-04-13T07:48:01.805Z,24.80
2018-04-13T07:50:29.353Z,15.02
2018-04-13T07:52:56.855Z,11.23
2018-04-13T07:55:24.374Z,12.88
2018-04-13T07:57:51.896Z,17.02
2018-04-13T08:00:19.731Z,13.30
2018-04-13T08:02:47.059Z,11.75
2018-04-13T08:05:14.614Z,13.10
2018-04-13T08:07:42.590Z,14.82
2018-04-13T08:10:10.088Z,12.23
2018-04-13T08:12:37.827Z,13.27
2018-04-13T08:15:05.171Z,13.60
2018-04-13T08:17:32.707Z,11.70
2018-04-13T08:20:00.256Z,17.23
2018-04-13T08:22:27.759Z,11.38
2018-04-13T08:24:55.306Z,11.40
2018-04-13T08:27:22.864Z,19.50
2018-04-13T08:29:50.427Z,15.05
2018-04-13T08:32:17.972Z,12.73
2018-04-13T08:34:45.491Z,12.30
2018-04-13T08:37:13.045Z,11.85
2018-04-13T08:39:40.550Z,12.02
2018-04-13T08:42:08.052Z,14.65
2018-04-13T08:44:35.603Z,12.40
2018-04-13T08:47:03.132Z,14.05
2018-04-13T08:49:30.694Z,10.48
2018-04-13T08:51:58.245Z,9.80
2018-04-13T08:54:25.764Z,14.55
2018-04-13T08:56:53.312Z,15.05
2018-04-13T08:59:20.811Z,12.05
2018-04-13T09:01:48.320Z,15.27
2018-04-13T09:04:15.836Z,11.30
2018-04-13T09:06:43.343Z,14.18
2018-04-13T09:09:10.866Z,11.38
2018-04-13T09:11:38.378Z,12.50
2018-04-13T09:14:05.929Z,12.82
2018-04-13T09:16:33.495Z,14.95
2018-04-13T09:19:01.040Z,14.80
2018-04-13T09:21:28.543Z,10.65
2018-04-13T09:23:56.052Z,13.75
2018-04-13T09:26:23.559Z,13.62
2018-04-13T09:28:51.231Z,18.73
2018-04-13T09:31:18.855Z,9.90
2018-04-13T09:33:46.369Z,11.95
2018-04-13T09:36:13.879Z,10.05
2018-04-13T09:38:41.385Z,18.20
2018-04-13T09:41:08.909Z,13.80
2018-04-13T09:43:36.465Z,13.27
2018-04-13T09:46:04.014Z,12.85
2018-04-13T09:48:31.603Z,15.60
2018-04-13T09:50:59.124Z,11.10
2018-04-13T09:53:26.640Z,13.23
2018-04-13T09:55:54.147Z,15.15
2018-04-13T09:58:21.751Z,14.38
2018-04-13T10:00:54.854Z,16.87
2018-04-13T10:03:22.377Z,11.30
2018-04-13T10:05:49.885Z,14.27
2018-04-13T10:08:17.484Z,14.07
2018-04-13T10:10:45.008Z,14.52
2018-04-13T10:13:13.444Z,16.77
2018-04-13T10:15:41.023Z,11.02
2018-04-13T10:18:08.532Z,14.80
2018-04-13T10:20:36.081Z,15.18
2018-04-13T10:23:03.588Z,12.52
2018-04-13T10:25:31.152Z,14.07
2018-04-13T10:27:58.793Z,14.87
2018-04-13T10:30:26.340Z,16.92
2018-04-13T10:32:53.852Z,12.98
2018-04-13T10:35:21.410Z,17.12
2018-04-13T10:37:48.913Z,17.10
2018-04-13T10:40:16.517Z,17.02
2018-04-13T10:42:44.032Z,11.80
2018-04-13T10:45:11.531Z,13.88
2018-04-13T10:47:39.036Z,13.35
2018-04-13T10:50:06.601Z,13.10
2018-04-13T10:52:34.108Z,14.57
2018-04-13T10:55:01.610Z,13.70
2018-04-13T10:57:29.116Z,17.80
2018-04-13T10:59:56.624Z,21.67
2018-04-13T11:02:24.162Z,9.65
2018-04-13T11:04:51.720Z,13.77
2018-04-13T11:07:19.269Z,13.98
2018-04-13T11:09:46.780Z,16.95
2018-04-13T11:12:14.314Z,17.37
2018-04-13T11:14:41.839Z,14.40
2018-04-13T11:17:09.433Z,13.93
2018-04-13T11:19:37.007Z,17.70
2018-04-13T11:22:04.515Z,10.55
2018-04-13T11:24:32.020Z,13.43
2018-04-13T11:26:59.563Z,13.23
2018-04-13T11:29:27.076Z,17.45
2018-04-13T11:31:54.620Z,20.58
2018-04-13T11:34:22.174Z,16.17
2018-04-13T11:36:49.687Z,14.73
2018-04-13T11:39:17.247Z,16.85
2018-04-13T11:41:44.770Z,14.23
2018-04-13T11:44:12.271Z,15.95
2018-04-13T11:46:39.772Z,11.32
2018-04-13T11:49:07.747Z,12.88
2018-04-13T11:51:35.276Z,14.27
2018-04-13T11:54:02.793Z,15.75
2018-04-13T11:56:30.455Z,17.17
2018-04-13T11:58:57.964Z,14.50
2018-04-13T12:01:25.483Z,12.07
2018-04-13T12:03:53.027Z,15.20
2018-04-13T12:06:20.536Z,14.50
2018-04-13T12:08:48.038Z,12.68
2018-04-13T12:11:15.543Z,17.67
2018-04-13T12:13:43.046Z,17.90
2018-04-13T12:16:10.591Z,21.60
2018-04-13T12:18:38.101Z,11.93
2018-04-13T12:21:05.642Z,17.45
2018-04-13T12:23:33.190Z,16.52
2018-04-13T12:26:00.694Z,13.35
2018-04-13T12:28:28.231Z,14.45
2018-04-13T12:30:55.780Z,16.85
2018-04-13T12:33:23.351Z,13.07
2018-04-13T12:35:50.867Z,14.98
2018-04-13T12:38:18.430Z,18.70
2018-04-13T12:40:45.972Z,16.05
2018-04-13T12:43:13.582Z,17.98
2018-04-13T12:45:41.241Z,17.73
2018-04-13T12:48:08.751Z,17.87
2018-04-13T12:50:36.316Z,17.60
2018-04-13T12:53:03.832Z,16.17
2018-04-13T12:55:31.367Z,11.88
2018-04-13T12:57:58.953Z,19.73
2018-04-13T13:00:26.502Z,15.43
2018-04-13T13:02:54.007Z,13.87
2018-04-13T13:05:21.551Z,17.23
2018-04-13T13:07:49.055Z,12.17
2018-04-13T13:10:16.600Z,16.90
2018-04-13T13:12:44.139Z,14.83
2018-04-13T13:15:11.651Z,16.17
2018-04-13T13:17:39.151Z,15.03
2018-04-13T13:20:06.770Z,19.93
2018-04-13T13:22:34.291Z,18.30
2018-04-13T13:25:01.815Z,15.37
2018-04-13T13:27:29.335Z,12.33
2018-04-13T13:29:56.859Z,13.17
2018-04-13T13:32:24.427Z,17.90
2018-04-13T13:34:51.941Z,18.37
2018-04-13T13:37:19.452Z,17.70
2018-04-13T13:39:47.012Z,15.60
2018-04-13T13:42:14.569Z,18.27
2018-04-13T13:44:42.075Z,20.00
2018-04-13T13:47:09.621Z,16.67
2018-04-13T13:49:37.141Z,17.50
2018-04-13T13:52:04.716Z,22.10
2018-04-13T13:54:32.219Z,21.43
2018-04-13T13:56:59.757Z,17.17
2018-04-13T13:59:27.263Z,17.33
2018-04-13T14:01:54.799Z,21.93
2018-04-13T14:04:22.315Z,28.50
2018-04-13T14:06:49.912Z,15.30
2018-04-13T14:09:17.424Z,14.30
2018-04-13T14:11:44.971Z,16.90
2018-04-13T14:14:12.473Z,15.03
2018-04-13T14:16:39.985Z,15.37
2018-04-13T14:19:07.494Z,16.13
2018-04-13T14:21:35.056Z,15.57
2018-04-13T14:24:02.591Z,18.07
2018-04-13T14:26:30.107Z,15.77
2018-04-13T14:28:57.620Z,15.90
2018-04-13T14:31:25.155Z,15.27
2018-04-13T14:33:52.745Z,18.73
2018-04-13T14:36:20.242Z,16.00
2018-04-13T14:38:47.787Z,13.47
2018-04-13T14:41:15.333Z,13.73
2018-04-13T14:43:42.849Z,16.60
2018-04-13T14:46:10.404Z,12.90
2018-04-13T14:48:38.004Z,18.10
2018-04-13T14:51:05.504Z,12.43
2018-04-13T14:53:33.041Z,19.73
2018-04-13T14:56:00.578Z,17.77
2018-04-13T14:58:28.120Z,18.87
2018-04-13T15:00:55.719Z,16.97
2018-04-13T15:03:23.254Z,16.67
2018-04-13T15:05:50.767Z,18.77
2018-04-13T15:08:18.335Z,16.43
2018-04-13T15:10:45.836Z,18.37
2018-04-13T15:13:13.377Z,17.43
2018-04-13T15:15:40.920Z,21.60
2018-04-13T15:18:08.615Z,16.33
2018-04-13T15:20:36.167Z,18.97
2018-04-13T15:23:03.719Z,13.17
2018-04-13T15:25:31.226Z,14.27
2018-04-13T15:27:58.768Z,12.73
2018-04-13T15:30:26.310Z,17.93
2018-04-13T15:32:53.871Z,12.43
2018-04-13T15:35:21.382Z,11.93
2018-04-13T15:37:48.940Z,22.23
2018-04-13T15:40:16.541Z,19.43
2018-04-13T15:42:43.990Z,26.03
2018-04-13T15:45:11.500Z,17.63
2018-04-13T15:47:39.011Z,18.03
2018-04-13T15:50:06.515Z,17.80
2018-04-13T15:52:34.024Z,19.13
2018-04-13T15:55:01.576Z,15.23
2018-04-13T15:57:29.082Z,17.73
2018-04-13T15:59:56.671Z,14.93
2018-04-13T16:02:24.187Z,16.77
2018-04-13T16:04:51.693Z,14.43
2018-04-13T16:07:19.244Z,16.90
2018-04-13T16:09:46.763Z,16.13
2018-04-13T16:12:14.299Z,11.57
2018-04-13T16:14:41.821Z,13.33
2018-04-13T16:17:09.448Z,17.13
2018-04-13T16:19:36.993Z,16.60
2018-04-13T16:22:04.538Z,13.67
2018-04-13T16:24:32.039Z,17.43
2018-04-13T16:26:59.537Z,14.93
2018-04-13T16:29:27.038Z,15.43
2018-04-13T16:31:54.544Z,14.00
2018-04-13T16:34:22.046Z,16.17
2018-04-13T16:36:49.559Z,14.70
2018-04-13T16:39:17.124Z,13.30
2018-04-13T16:41:44.656Z,15.53
2018-04-13T16:44:12.169Z,13.00
2018-04-13T16:46:39.689Z,15.30
2018-04-13T16:49:07.193Z,13.90
2018-04-13T16:51:34.795Z,15.83
2018-04-13T16:54:02.324Z,22.07
2018-04-13T16:56:29.872Z,15.67
2018-04-13T16:58:57.376Z,13.93
2018-04-13T17:01:24.890Z,15.17
2018-04-13T17:03:52.441Z,17.93
2018-04-13T17:06:19.948Z,19.03
2018-04-13T17:08:47.465Z,19.07
2018-04-13T17:11:14.999Z,16.80
2018-04-13T17:13:42.535Z,13.90
2018-04-13T17:16:10.045Z,14.47
2018-04-13T17:18:37.560Z,15.10
2018-04-13T17:21:05.116Z,14.93
2018-04-13T17:23:32.665Z,15.03
2018-04-13T17:26:00.182Z,11.83
2018-04-13T17:28:27.684Z,19.57
2018-04-13T17:30:55.233Z,16.30
2018-04-13T17:33:22.770Z,15.57
2018-04-13T17:35:50.319Z,14.90
2018-04-13T17:38:17.880Z,17.53
2018-04-13T17:40:45.438Z,14.27
2018-04-13T17:43:12.997Z,15.67
2018-04-13T17:45:40.495Z,11.27
2018-04-13T17:48:08.002Z,12.50
2018-04-13T17:50:35.553Z,18.53
2018-04-13T17:53:03.118Z,13.33
2018-04-13T17:55:30.696Z,19.93
2018-04-13T17:57:58.201Z,14.83
2018-04-13T18:00:25.741Z,13.47
2018-04-13T18:02:53.245Z,15.73
2018-04-13T18:05:20.760Z,15.23
2018-04-13T18:07:48.323Z,13.53
2018-04-13T18:10:15.823Z,14.30
2018-04-13T18:12:43.366Z,17.10
2018-04-13T18:15:10.871Z,14.50
2018-04-13T18:17:38.379Z,11.50
2018-04-13T18:20:05.919Z,15.03
2018-04-13T18:22:35.465Z,19.93
2018-04-13T18:25:03.137Z,15.97
2018-04-13T18:27:30.656Z,17.20
2018-04-13T18:29:58.989Z,15.90
2018-04-13T18:32:27.100Z,16.00
2018-04-13T18:34:54.639Z,18.10
2018-04-13T18:37:22.141Z,18.13
2018-04-13T18:39:49.700Z,14.47
2018-04-13T18:42:17.266Z,19.73
2018-04-13T18:44:44.819Z,18.10
2018-04-13T18:47:12.386Z,13.90
2018-04-13T18:49:39.988Z,18.70
2018-04-13T18:52:07.546Z,18.73
2018-04-13T18:54:35.116Z,21.57
2018-04-13T18:57:02.631Z,21.30
2018-04-13T18:59:30.183Z,18.60
2018-04-13T19:01:57.723Z,17.87
2018-04-13T19:04:25.239Z,18.30
2018-04-13T19:06:52.796Z,12.83
2018-04-13T19:09:20.317Z,18.13
2018-04-13T19:11:47.826Z,16.13
2018-04-13T19:14:15.356Z,15.40
2018-04-13T19:16:42.864Z,12.83
2018-04-13T19:19:10.432Z,15.27
2018-04-13T19:21:38.027Z,16.37
2018-04-13T19:24:05.544Z,17.40
2018-04-13T19:26:33.109Z,17.97
2018-04-13T19:29:00.611Z,13.93
2018-04-13T19:31:28.157Z,16.80
2018-04-13T19:33:55.671Z,18.83
2018-04-13T19:36:23.224Z,16.13
2018-04-13T19:38:50.753Z,14.83
2018-04-13T19:41:18.268Z,18.17
2018-04-13T19:43:45.818Z,17.40
2018-04-13T19:46:13.327Z,17.57
2018-04-13T19:48:40.836Z,17.63
2018-04-13T19:51:08.362Z,15.67
2018-04-13T19:53:35.912Z,20.90
2018-04-13T19:56:03.578Z,15.27
2018-04-13T19:58:31.154Z,15.30
2018-04-13T20:00:58.696Z,15.40
2018-04-13T20:03:26.253Z,14.37
2018-04-13T20:05:54.667Z,17.47
2018-04-13T20:08:22.215Z,14.27
2018-04-13T20:10:50.059Z,20.43
2018-04-13T20:13:17.572Z,20.10
2018-04-13T20:15:45.184Z,18.77
2018-04-13T20:18:12.703Z,14.00
2018-04-13T20:20:40.579Z,23.33
2018-04-13T20:23:08.145Z,19.30
2018-04-13T20:25:35.668Z,20.93
2018-04-13T20:28:03.199Z,14.53
2018-04-13T20:30:30.731Z,14.67
2018-04-13T20:32:58.230Z,17.70
2018-04-13T20:35:25.773Z,15.87
2018-04-13T20:37:53.287Z,16.53
2018-04-13T20:40:20.857Z,15.13
2018-04-13T20:42:48.415Z,18.83
2018-04-13T20:45:15.927Z,16.53
2018-04-13T20:47:43.487Z,22.00
2018-04-13T20:50:11.027Z,28.43
2018-04-13T20:52:38.535Z,20.60
2018-04-13T20:55:06.048Z,17.57
2018-04-13T20:57:33.565Z,16.97
2018-04-13T21:00:01.163Z,14.87
2018-04-13T21:02:28.735Z,15.60
2018-04-13T21:04:56.982Z,18.77
2018-04-13T21:07:24.528Z,19.87
2018-04-13T21:09:52.064Z,22.33
2018-04-13T21:12:19.574Z,19.77
2018-04-13T21:14:47.131Z,25.23
2018-04-13T21:17:14.675Z,24.17
2018-04-13T21:19:42.178Z,20.90
2018-04-13T21:22:09.684Z,18.70
2018-04-13T21:24:37.243Z,23.73
2018-04-13T21:27:04.805Z,24.63
2018-04-13T21:29:32.316Z,17.90
2018-04-13T21:31:59.870Z,20.73
2018-04-13T21:34:27.380Z,14.10
2018-04-13T21:36:54.887Z,22.03
2018-04-13T21:39:22.395Z,21.70
2018-04-13T21:41:49.905Z,16.93
2018-04-13T21:44:17.450Z,16.80
2018-04-13T21:46:44.959Z,18.57
2018-04-13T21:49:12.559Z,21.10
2018-04-13T21:51:40.063Z,16.47
2018-04-13T21:54:07.608Z,18.47
2018-04-13T21:56:35.135Z,17.43
2018-04-13T21:59:02.631Z,21.27
2018-04-13T22:01:30.176Z,15.93
2018-04-13T22:03:57.728Z,16.27
2018-04-13T22:06:25.288Z,18.77
2018-04-13T22:08:52.836Z,16.37
2018-04-13T22:11:20.348Z,17.47
2018-04-13T22:13:47.928Z,17.47
2018-04-13T22:16:15.432Z,15.17
2018-04-13T22:18:42.944Z,19.50
2018-04-13T22:21:10.463Z,14.90
2018-04-13T22:23:37.970Z,16.20
2018-04-13T22:26:05.523Z,17.53
2018-04-13T22:28:33.031Z,17.73
2018-04-13T22:31:00.666Z,14.60
2018-04-13T22:33:28.172Z,14.77
2018-04-13T22:35:55.727Z,20.60
2018-04-13T22:38:23.231Z,17.07
2018-04-13T22:40:50.792Z,14.93
2018-04-13T22:43:18.295Z,17.40
2018-04-13T22:45:45.798Z,16.13
2018-04-13T22:48:13.318Z,16.20
2018-04-13T22:50:40.868Z,14.63
2018-04-13T22:53:08.412Z,14.67
2018-04-13T22:55:35.919Z,13.30
2018-04-13T22:58:03.508Z,14.47
2018-04-13T23:00:31.061Z,14.13
2018-04-13T23:02:58.608Z,14.03
2018-04-13T23:05:26.117Z,17.17
2018-04-13T23:07:53.676Z,17.47
2018-04-13T23:10:21.218Z,16.20
2018-04-13T23:12:48.718Z,21.23
2018-04-13T23:15:16.278Z,17.53
2018-04-13T23:17:43.798Z,19.73
2018-04-13T23:20:11.353Z,16.70
2018-04-13T23:22:38.858Z,21.93
2018-04-13T23:25:06.420Z,16.70
2018-04-13T23:27:33.926Z,20.87
2018-04-13T23:30:01.501Z,18.07
2018-04-13T23:32:29.054Z,18.00
2018-04-13T23:34:56.567Z,16.33
2018-04-13T23:37:24.122Z,18.97
2018-04-13T23:39:51.633Z,20.03
2018-04-13T23:42:19.193Z,19.57
2018-04-13T23:44:46.708Z,17.87
2018-04-13T23:47:14.299Z,16.77
2018-04-13T23:49:41.811Z,19.10
2018-04-13T23:52:09.321Z,19.83
2018-04-13T23:54:36.832Z,22.83
2018-04-13T23:57:04.336Z,21.93
2018-04-13T23:59:31.883Z,20.73
